sensor_id;sensor_type;location;lat;lon;timestamp;pressure;altitude;pressure_sealevel;temperature;humidity
40285;BME280;25997;50.214;19.354;2023-04-25T00:01:07;96714.06;;;10.22;60.72
40285;BME280;25997;50.214;19.354;2023-04-25T00:04:10;96712.31;;;10.24;60.55
40285;BME280;25997;50.214;19.354;2023-04-25T00:07:15;96707.94;;;10.26;60.47
40285;BME280;25997;50.214;19.354;2023-04-25T00:10:19;96710.59;;;10.29;60.53
40285;BME280;25997;50.214;19.354;2023-04-25T00:13:21;96714.97;;;10.31;60.50
40285;BME280;25997;50.214;19.354;2023-04-25T00:16:24;96712.34;;;10.28;60.58
40285;BME280;25997;50.214;19.354;2023-04-25T00:19:27;96714.94;;;10.24;60.98
40285;BME280;25997;50.214;19.354;2023-04-25T00:22:32;96714.06;;;10.22;60.92
40285;BME280;25997;50.214;19.354;2023-04-25T00:25:35;96709.69;;;10.27;60.71
40285;BME280;25997;50.214;19.354;2023-04-25T00:28:39;96710.59;;;10.30;60.68
40285;BME280;25997;50.214;19.354;2023-04-25T00:31:41;96707.13;;;10.33;60.54
40285;BME280;25997;50.214;19.354;2023-04-25T00:34:44;96713.25;;;10.36;60.32
40285;BME280;25997;50.214;19.354;2023-04-25T00:37:47;96709.75;;;10.36;60.64
40285;BME280;25997;50.214;19.354;2023-04-25T00:40:50;96712.38;;;10.39;60.27
40285;BME280;25997;50.214;19.354;2023-04-25T00:43:54;96722.06;;;10.47;60.33
40285;BME280;25997;50.214;19.354;2023-04-25T00:46:58;96722.94;;;10.48;60.30
40285;BME280;25997;50.214;19.354;2023-04-25T00:50:01;96720.28;;;10.42;60.34
40285;BME280;25997;50.214;19.354;2023-04-25T00:53:05;96721.13;;;10.36;60.52
40285;BME280;25997;50.214;19.354;2023-04-25T00:56:10;96718.47;;;10.30;60.85
40285;BME280;25997;50.214;19.354;2023-04-25T00:59:15;96721.09;;;10.32;60.66
40285;BME280;25997;50.214;19.354;2023-04-25T01:02:17;96717.59;;;10.31;60.80
40285;BME280;25997;50.214;19.354;2023-04-25T01:05:20;96714.06;;;10.28;60.86
40285;BME280;25997;50.214;19.354;2023-04-25T01:08:24;96716.66;;;10.17;61.46
40285;BME280;25997;50.214;19.354;2023-04-25T01:11:27;96719.25;;;10.16;61.44
40285;BME280;25997;50.214;19.354;2023-04-25T01:14:29;96717.47;;;10.10;62.31
40285;BME280;25997;50.214;19.354;2023-04-25T01:17:34;96717.44;;;10.07;62.59
40285;BME280;25997;50.214;19.354;2023-04-25T01:20:37;96718.25;;;10.03;62.73
40285;BME280;25997;50.214;19.354;2023-04-25T01:23:42;96713.97;;;10.08;62.16
40285;BME280;25997;50.214;19.354;2023-04-25T01:26:45;96709.59;;;10.10;62.15
40285;BME280;25997;50.214;19.354;2023-04-25T01:29:53;96711.34;;;10.10;62.23
40285;BME280;25997;50.214;19.354;2023-04-25T01:32:57;96706.09;;;10.11;62.23
40285;BME280;25997;50.214;19.354;2023-04-25T01:36:04;96713.03;;;10.05;62.28
40285;BME280;25997;50.214;19.354;2023-04-25T01:39:08;96706.09;;;10.07;62.09
40285;BME280;25997;50.214;19.354;2023-04-25T01:42:10;96712.22;;;10.09;62.36
40285;BME280;25997;50.214;19.354;2023-04-25T01:45:12;96713.88;;;9.99;62.46
40285;BME280;25997;50.214;19.354;2023-04-25T01:48:15;96712.88;;;9.85;63.01
40285;BME280;25997;50.214;19.354;2023-04-25T01:51:18;96722.44;;;9.78;63.03
40285;BME280;25997;50.214;19.354;2023-04-25T01:54:22;96717.19;;;9.75;63.09
40285;BME280;25997;50.214;19.354;2023-04-25T01:57:25;96721.53;;;9.70;63.18
40285;BME280;25997;50.214;19.354;2023-04-25T02:00:29;96722.34;;;9.62;63.19
40285;BME280;25997;50.214;19.354;2023-04-25T02:03:32;96721.41;;;9.55;63.70
40285;BME280;25997;50.214;19.354;2023-04-25T02:06:36;96730.03;;;9.47;64.14
40285;BME280;25997;50.214;19.354;2023-04-25T02:09:40;96722.16;;;9.45;64.71
40285;BME280;25997;50.214;19.354;2023-04-25T02:12:46;96723.09;;;9.50;63.59
40285;BME280;25997;50.214;19.354;2023-04-25T02:16:11;96723.09;;;9.50;63.09
40285;BME280;25997;50.214;19.354;2023-04-25T02:19:14;96729.09;;;9.40;63.32
40285;BME280;25997;50.214;19.354;2023-04-25T02:22:17;96724.75;;;9.38;63.45
40285;BME280;25997;50.214;19.354;2023-04-25T02:25:22;96728.16;;;9.34;64.15
40285;BME280;25997;50.214;19.354;2023-04-25T02:28:24;96721.16;;;9.29;63.33
40285;BME280;25997;50.214;19.354;2023-04-25T02:31:27;96731.63;;;9.26;63.11
40285;BME280;25997;50.214;19.354;2023-04-25T02:34:32;96728.94;;;9.22;63.16
40285;BME280;25997;50.214;19.354;2023-04-25T02:37:36;96734.25;;;9.28;63.01
40285;BME280;25997;50.214;19.354;2023-04-25T02:40:42;96734.19;;;9.22;63.03
40285;BME280;25997;50.214;19.354;2023-04-25T02:43:45;96732.38;;;9.15;63.44
40285;BME280;25997;50.214;19.354;2023-04-25T02:46:48;96736.66;;;9.08;63.65
40285;BME280;25997;50.214;19.354;2023-04-25T02:49:50;96737.47;;;9.03;63.74
40285;BME280;25997;50.214;19.354;2023-04-25T02:52:53;96735.72;;;9.05;63.27
40285;BME280;25997;50.214;19.354;2023-04-25T02:56:02;96734.97;;;9.15;62.89
40285;BME280;25997;50.214;19.354;2023-04-25T02:59:05;96735.81;;;9.12;62.87
40285;BME280;25997;50.214;19.354;2023-04-25T03:02:07;96741.81;;;9.01;63.21
40285;BME280;25997;50.214;19.354;2023-04-25T03:05:10;96748.78;;;9.00;63.16
40285;BME280;25997;50.214;19.354;2023-04-25T03:08:13;96744.44;;;9.02;63.00
40285;BME280;25997;50.214;19.354;2023-04-25T03:11:17;96742.63;;;8.95;63.31
40285;BME280;25997;50.214;19.354;2023-04-25T03:14:21;96752.19;;;8.93;63.37
40285;BME280;25997;50.214;19.354;2023-04-25T03:17:23;96741.69;;;8.93;63.32
40285;BME280;25997;50.214;19.354;2023-04-25T03:20:26;96745.19;;;8.91;63.88
40285;BME280;25997;50.214;19.354;2023-04-25T03:23:29;96739.97;;;8.91;64.33
40285;BME280;25997;50.214;19.354;2023-04-25T03:26:33;96750.28;;;8.82;64.42
40285;BME280;25997;50.214;19.354;2023-04-25T03:29:35;96754.63;;;8.80;64.28
40285;BME280;25997;50.214;19.354;2023-04-25T03:32:39;96752.75;;;8.70;64.45
40285;BME280;25997;50.214;19.354;2023-04-25T03:35:42;96757.13;;;8.71;64.42
40285;BME280;25997;50.214;19.354;2023-04-25T03:38:44;96760.53;;;8.65;64.16
40285;BME280;25997;50.214;19.354;2023-04-25T03:41:51;96751.66;;;8.51;64.12
40285;BME280;25997;50.214;19.354;2023-04-25T03:44:54;96763.06;;;8.59;64.00
40285;BME280;25997;50.214;19.354;2023-04-25T03:47:57;96761.28;;;8.56;64.08
40285;BME280;25997;50.214;19.354;2023-04-25T03:51:02;96770.03;;;8.57;63.97
40285;BME280;25997;50.214;19.354;2023-04-25T03:54:06;96768.38;;;8.67;63.68
40285;BME280;25997;50.214;19.354;2023-04-25T03:57:16;96764.94;;;8.69;63.77
40285;BME280;25997;50.214;19.354;2023-04-25T04:00:19;96771.03;;;8.68;63.53
40285;BME280;25997;50.214;19.354;2023-04-25T04:03:26;96764.97;;;8.71;63.80
40285;BME280;25997;50.214;19.354;2023-04-25T04:06:29;96762.41;;;8.75;63.20
40285;BME280;25997;50.214;19.354;2023-04-25T04:09:38;96783.31;;;8.72;63.43
40285;BME280;25997;50.214;19.354;2023-04-25T04:12:46;96777.97;;;8.65;62.73
40285;BME280;25997;50.214;19.354;2023-04-25T04:15:49;96786.56;;;8.56;62.94
40285;BME280;25997;50.214;19.354;2023-04-25T04:18:51;96795.31;;;8.56;62.59
40285;BME280;25997;50.214;19.354;2023-04-25T04:21:54;96795.19;;;8.49;62.70
40285;BME280;25997;50.214;19.354;2023-04-25T04:24:56;96793.50;;;8.52;62.73
40285;BME280;25997;50.214;19.354;2023-04-25T04:28:20;96799.69;;;8.58;62.88
40285;BME280;25997;50.214;19.354;2023-04-25T04:31:29;96797.84;;;8.50;63.25
40285;BME280;25997;50.214;19.354;2023-04-25T04:34:32;96799.56;;;8.48;63.27
40285;BME280;25997;50.214;19.354;2023-04-25T04:37:35;96806.59;;;8.52;63.31
40285;BME280;25997;50.214;19.354;2023-04-25T04:40:39;96797.88;;;8.53;63.28
40285;BME280;25997;50.214;19.354;2023-04-25T04:44:02;96796.81;;;8.41;63.66
40285;BME280;25997;50.214;19.354;2023-04-25T04:47:12;96795.03;;;8.38;63.25
40285;BME280;25997;50.214;19.354;2023-04-25T04:50:31;96806.38;;;8.37;63.32
40285;BME280;25997;50.214;19.354;2023-04-25T04:53:52;96797.50;;;8.26;62.83
40285;BME280;25997;50.214;19.354;2023-04-25T04:57:17;96804.31;;;8.15;62.89
40285;BME280;25997;50.214;19.354;2023-04-25T05:00:48;96816.41;;;8.10;62.76
40285;BME280;25997;50.214;19.354;2023-04-25T05:04:19;96804.19;;;8.09;62.82
40285;BME280;25997;50.214;19.354;2023-04-25T05:07:38;96803.34;;;8.12;62.50
40285;BME280;25997;50.214;19.354;2023-04-25T05:10:59;96810.16;;;8.02;62.54
40285;BME280;25997;50.214;19.354;2023-04-25T05:14:20;96812.84;;;8.05;62.59
40285;BME280;25997;50.214;19.354;2023-04-25T05:17:52;96807.75;;;8.13;62.71
40285;BME280;25997;50.214;19.354;2023-04-25T05:21:09;96811.19;;;8.09;62.41
40285;BME280;25997;50.214;19.354;2023-04-25T05:24:34;96804.47;;;8.29;62.38
40285;BME280;25997;50.214;19.354;2023-04-25T05:27:58;96815.00;;;8.33;62.26
40285;BME280;25997;50.214;19.354;2023-04-25T05:31:16;96810.88;;;8.47;62.14
40285;BME280;25997;50.214;19.354;2023-04-25T05:34:32;96825.78;;;8.53;61.90
40285;BME280;25997;50.214;19.354;2023-04-25T05:37:39;96815.28;;;8.51;61.83
40285;BME280;25997;50.214;19.354;2023-04-25T05:40:46;96819.66;;;8.52;61.57
40285;BME280;25997;50.214;19.354;2023-04-25T05:44:13;96822.34;;;8.57;61.44
40285;BME280;25997;50.214;19.354;2023-04-25T05:47:25;96823.94;;;8.46;61.52
40285;BME280;25997;50.214;19.354;2023-04-25T05:50:59;96825.69;;;8.47;61.11
40285;BME280;25997;50.214;19.354;2023-04-25T05:54:25;96826.75;;;8.60;61.64
40285;BME280;25997;50.214;19.354;2023-04-25T05:57:29;96815.44;;;8.62;61.59
40285;BME280;25997;50.214;19.354;2023-04-25T06:00:32;96826.78;;;8.63;61.22
40285;BME280;25997;50.214;19.354;2023-04-25T06:03:34;96826.81;;;8.64;61.04
40285;BME280;25997;50.214;19.354;2023-04-25T06:06:43;96833.16;;;8.81;61.19
40285;BME280;25997;50.214;19.354;2023-04-25T06:09:46;96834.81;;;8.76;60.86
40285;BME280;25997;50.214;19.354;2023-04-25T06:12:49;96839.16;;;8.76;60.94
40285;BME280;25997;50.214;19.354;2023-04-25T06:15:54;96839.31;;;8.86;61.21
40285;BME280;25997;50.214;19.354;2023-04-25T06:18:56;96841.41;;;9.10;61.10
40285;BME280;25997;50.214;19.354;2023-04-25T06:22:00;96836.22;;;9.14;60.55
40285;BME280;25997;50.214;19.354;2023-04-25T06:25:03;96839.84;;;9.25;60.91
40285;BME280;25997;50.214;19.354;2023-04-25T06:28:09;96846.09;;;9.38;60.88
40285;BME280;25997;50.214;19.354;2023-04-25T06:31:12;96836.59;;;9.49;60.63
40285;BME280;25997;50.214;19.354;2023-04-25T06:34:17;96847.28;;;9.69;60.24
40285;BME280;25997;50.214;19.354;2023-04-25T06:37:21;96845.41;;;9.56;59.43
40285;BME280;25997;50.214;19.354;2023-04-25T06:40:25;96847.28;;;9.64;59.86
40285;BME280;25997;50.214;19.354;2023-04-25T06:43:28;96849.06;;;9.71;59.37
40285;BME280;25997;50.214;19.354;2023-04-25T06:46:39;96847.28;;;9.67;59.27
40285;BME280;25997;50.214;19.354;2023-04-25T06:49:41;96843.06;;;9.81;59.41
40285;BME280;25997;50.214;19.354;2023-04-25T06:52:46;96848.16;;;9.68;58.44
40285;BME280;25997;50.214;19.354;2023-04-25T06:55:49;96851.63;;;9.65;58.41
40285;BME280;25997;50.214;19.354;2023-04-25T06:58:53;96843.75;;;9.64;58.59
40285;BME280;25997;50.214;19.354;2023-04-25T07:02:04;96846.44;;;9.71;58.19
40285;BME280;25997;50.214;19.354;2023-04-25T07:05:08;96851.69;;;9.71;58.20
40285;BME280;25997;50.214;19.354;2023-04-25T07:08:12;96846.53;;;9.77;58.05
40285;BME280;25997;50.214;19.354;2023-04-25T07:11:16;96847.28;;;9.69;57.75
40285;BME280;25997;50.214;19.354;2023-04-25T07:14:18;96849.00;;;9.64;57.49
40285;BME280;25997;50.214;19.354;2023-04-25T07:17:21;96853.41;;;9.69;57.42
40285;BME280;25997;50.214;19.354;2023-04-25T07:20:23;96847.19;;;9.58;57.11
40285;BME280;25997;50.214;19.354;2023-04-25T07:23:27;96844.72;;;9.73;57.76
40285;BME280;25997;50.214;19.354;2023-04-25T07:26:34;96846.66;;;9.94;57.77
40285;BME280;25997;50.214;19.354;2023-04-25T07:29:55;96844.94;;;9.93;56.88
40285;BME280;25997;50.214;19.354;2023-04-25T07:32:58;96847.59;;;9.99;57.14
40285;BME280;25997;50.214;19.354;2023-04-25T07:36:01;96848.59;;;10.10;56.97
40285;BME280;25997;50.214;19.354;2023-04-25T07:39:05;96842.47;;;10.11;56.93
40285;BME280;25997;50.214;19.354;2023-04-25T07:42:10;96849.47;;;10.12;56.54
40285;BME280;25997;50.214;19.354;2023-04-25T07:45:17;96839.91;;;10.17;56.54
40285;BME280;25997;50.214;19.354;2023-04-25T07:48:19;96850.38;;;10.13;56.11
40285;BME280;25997;50.214;19.354;2023-04-25T07:51:24;96859.88;;;10.03;55.69
40285;BME280;25997;50.214;19.354;2023-04-25T07:54:34;96855.19;;;9.72;55.36
40285;BME280;25997;50.214;19.354;2023-04-25T07:57:47;96856.81;;;9.61;55.51
40285;BME280;25997;50.214;19.354;2023-04-25T08:00:49;96849.00;;;9.65;55.15
40285;BME280;25997;50.214;19.354;2023-04-25T08:04:11;96848.31;;;9.81;54.30
40285;BME280;25997;50.214;19.354;2023-04-25T08:07:36;96847.59;;;9.99;54.58
40285;BME280;25997;50.214;19.354;2023-04-25T08:10:43;96848.56;;;10.07;53.94
40285;BME280;25997;50.214;19.354;2023-04-25T08:13:46;96845.19;;;10.22;54.15
40285;BME280;25997;50.214;19.354;2023-04-25T08:16:49;96847.97;;;10.41;53.79
40285;BME280;25997;50.214;19.354;2023-04-25T08:19:53;96848.97;;;10.60;53.73
40285;BME280;25997;50.214;19.354;2023-04-25T08:23:03;96854.34;;;10.75;53.37
40285;BME280;25997;50.214;19.354;2023-04-25T08:26:23;96846.47;;;10.80;52.54
40285;BME280;25997;50.214;19.354;2023-04-25T08:29:28;96853.38;;;10.67;51.95
40285;BME280;25997;50.214;19.354;2023-04-25T08:32:31;96848.00;;;10.44;51.61
40285;BME280;25997;50.214;19.354;2023-04-25T08:35:59;96848.75;;;10.31;52.10
40285;BME280;25997;50.214;19.354;2023-04-25T08:39:02;96848.03;;;10.52;52.40
40285;BME280;25997;50.214;19.354;2023-04-25T08:42:09;96850.94;;;10.93;52.85
40285;BME280;25997;50.214;19.354;2023-04-25T08:45:14;96843.22;;;11.27;52.51
40285;BME280;25997;50.214;19.354;2023-04-25T08:48:18;96843.25;;;11.38;51.15
40285;BME280;25997;50.214;19.354;2023-04-25T08:51:22;96845.97;;;11.61;51.82
40285;BME280;25997;50.214;19.354;2023-04-25T08:54:27;96850.38;;;11.89;51.10
40285;BME280;25997;50.214;19.354;2023-04-25T08:57:33;96846.91;;;11.85;50.68
40285;BME280;25997;50.214;19.354;2023-04-25T09:00:37;96849.53;;;11.85;50.56
40285;BME280;25997;50.214;19.354;2023-04-25T09:03:39;96854.81;;;11.94;50.57
40285;BME280;25997;50.214;19.354;2023-04-25T09:06:42;96859.19;;;12.04;50.20
40285;BME280;25997;50.214;19.354;2023-04-25T09:09:45;96858.34;;;12.16;50.53
40285;BME280;25997;50.214;19.354;2023-04-25T09:13:04;96853.13;;;12.42;49.31
40285;BME280;25997;50.214;19.354;2023-04-25T09:16:14;96850.47;;;12.36;49.22
40285;BME280;25997;50.214;19.354;2023-04-25T09:19:41;96857.50;;;12.32;49.38
40285;BME280;25997;50.214;19.354;2023-04-25T09:23:04;96856.59;;;12.18;45.82
40285;BME280;25997;50.214;19.354;2023-04-25T09:26:14;96856.59;;;12.13;48.58
40285;BME280;25997;50.214;19.354;2023-04-25T09:29:29;96855.75;;;12.33;47.32
40285;BME280;25997;50.214;19.354;2023-04-25T09:32:33;96853.13;;;12.37;48.39
40285;BME280;25997;50.214;19.354;2023-04-25T09:35:37;96849.59;;;12.37;48.23
40285;BME280;25997;50.214;19.354;2023-04-25T09:38:44;96851.34;;;12.26;48.02
40285;BME280;25997;50.214;19.354;2023-04-25T09:41:59;96851.34;;;12.27;48.11
40285;BME280;25997;50.214;19.354;2023-04-25T09:45:03;96852.22;;;12.41;48.18
40285;BME280;25997;50.214;19.354;2023-04-25T09:48:11;96848.72;;;12.45;47.67
40285;BME280;25997;50.214;19.354;2023-04-25T09:51:18;96856.59;;;12.54;47.38
40285;BME280;25997;50.214;19.354;2023-04-25T09:54:21;96855.72;;;12.49;46.89
40285;BME280;25997;50.214;19.354;2023-04-25T09:57:28;96855.72;;;12.36;46.62
40285;BME280;25997;50.214;19.354;2023-04-25T10:00:34;96856.59;;;12.42;46.32
40285;BME280;25997;50.214;19.354;2023-04-25T10:03:50;96854.84;;;12.46;46.31
40285;BME280;25997;50.214;19.354;2023-04-25T10:07:20;96848.72;;;12.53;46.28
40285;BME280;25997;50.214;19.354;2023-04-25T10:10:27;96843.44;;;12.62;46.06
40285;BME280;25997;50.214;19.354;2023-04-25T10:13:30;96848.66;;;12.83;46.22
40285;BME280;25997;50.214;19.354;2023-04-25T10:16:35;96839.84;;;12.98;45.53
40285;BME280;25997;50.214;19.354;2023-04-25T10:19:39;96839.81;;;13.07;45.55
40285;BME280;25997;50.214;19.354;2023-04-25T10:22:43;96832.81;;;13.09;45.10
40285;BME280;25997;50.214;19.354;2023-04-25T10:25:46;96842.44;;;13.14;44.50
40285;BME280;25997;50.214;19.354;2023-04-25T10:28:55;96833.66;;;13.14;44.41
40285;BME280;25997;50.214;19.354;2023-04-25T10:32:00;96832.81;;;13.13;44.37
40285;BME280;25997;50.214;19.354;2023-04-25T10:35:13;96826.63;;;13.14;40.91
40285;BME280;25997;50.214;19.354;2023-04-25T10:38:16;96830.13;;;13.18;43.84
40285;BME280;25997;50.214;19.354;2023-04-25T10:41:19;96825.78;;;13.08;43.49
40285;BME280;25997;50.214;19.354;2023-04-25T10:44:26;96831.03;;;13.15;43.57
40285;BME280;25997;50.214;19.354;2023-04-25T10:47:36;96832.78;;;13.16;42.67
40285;BME280;25997;50.214;19.354;2023-04-25T10:50:38;96829.28;;;13.04;43.07
40285;BME280;25997;50.214;19.354;2023-04-25T10:53:41;96820.56;;;12.82;43.17
40285;BME280;25997;50.214;19.354;2023-04-25T10:56:45;96817.03;;;12.83;43.07
40285;BME280;25997;50.214;19.354;2023-04-25T10:59:48;96812.59;;;12.99;43.11
40285;BME280;25997;50.214;19.354;2023-04-25T11:02:55;96819.59;;;13.24;42.39
40285;BME280;25997;50.214;19.354;2023-04-25T11:06:00;96823.94;;;13.28;42.44
40285;BME280;25997;50.214;19.354;2023-04-25T11:09:10;96818.69;;;13.28;39.98
40285;BME280;25997;50.214;19.354;2023-04-25T11:12:14;96820.44;;;13.27;42.09
40285;BME280;25997;50.214;19.354;2023-04-25T11:15:18;96822.91;;;13.59;42.70
40285;BME280;25997;50.214;19.354;2023-04-25T11:18:26;96822.72;;;13.95;41.20
40285;BME280;25997;50.214;19.354;2023-04-25T11:21:29;96818.28;;;14.00;41.23
40285;BME280;25997;50.214;19.354;2023-04-25T11:24:33;96823.44;;;14.14;41.14
40285;BME280;25997;50.214;19.354;2023-04-25T11:27:38;96823.44;;;14.14;39.75
40285;BME280;25997;50.214;19.354;2023-04-25T11:30:48;96819.16;;;14.01;40.00
40285;BME280;25997;50.214;19.354;2023-04-25T11:33:53;96828.03;;;13.85;40.68
40285;BME280;25997;50.214;19.354;2023-04-25T11:36:55;96829.69;;;14.05;41.44
40285;BME280;25997;50.214;19.354;2023-04-25T11:39:58;96830.72;;;13.77;39.89
40285;BME280;25997;50.214;19.354;2023-04-25T11:43:00;96829.06;;;13.58;40.04
40285;BME280;25997;50.214;19.354;2023-04-25T11:46:06;96826.66;;;12.99;37.94
40285;BME280;25997;50.214;19.354;2023-04-25T11:49:10;96826.66;;;13.01;39.34
40285;BME280;25997;50.214;19.354;2023-04-25T11:52:13;96829.31;;;13.08;40.13
40285;BME280;25997;50.214;19.354;2023-04-25T11:55:16;96821.34;;;13.22;39.97
40285;BME280;25997;50.214;19.354;2023-04-25T11:58:19;96824.00;;;13.04;37.94
40285;BME280;25997;50.214;19.354;2023-04-25T12:01:26;96834.56;;;13.08;39.80
40285;BME280;25997;50.214;19.354;2023-04-25T12:04:30;96827.53;;;13.04;38.59
40285;BME280;25997;50.214;19.354;2023-04-25T12:07:34;96818.75;;;12.99;39.62
40285;BME280;25997;50.214;19.354;2023-04-25T12:10:37;96830.22;;;12.90;39.77
40285;BME280;25997;50.214;19.354;2023-04-25T12:13:43;96833.72;;;12.88;38.62
40285;BME280;25997;50.214;19.354;2023-04-25T12:16:47;96837.25;;;12.85;39.73
40285;BME280;25997;50.214;19.354;2023-04-25T12:19:52;96832.03;;;12.64;39.43
40285;BME280;25997;50.214;19.354;2023-04-25T12:22:54;96824.13;;;12.64;39.83
40285;BME280;25997;50.214;19.354;2023-04-25T12:25:59;96824.97;;;12.68;39.77
40285;BME280;25997;50.214;19.354;2023-04-25T12:29:15;96824.13;;;12.55;37.12
40285;BME280;25997;50.214;19.354;2023-04-25T12:32:18;96829.38;;;12.54;39.88
40285;BME280;25997;50.214;19.354;2023-04-25T12:35:22;96835.53;;;12.47;39.88
40285;BME280;25997;50.214;19.354;2023-04-25T12:38:25;96827.66;;;12.23;39.92
40285;BME280;25997;50.214;19.354;2023-04-25T12:41:27;96822.41;;;12.12;40.13
40285;BME280;25997;50.214;19.354;2023-04-25T12:44:30;96832.00;;;11.95;40.29
40285;BME280;25997;50.214;19.354;2023-04-25T12:47:32;96828.50;;;11.96;40.61
40285;BME280;25997;50.214;19.354;2023-04-25T12:50:37;96836.38;;;11.94;40.41
40285;BME280;25997;50.214;19.354;2023-04-25T12:53:40;96842.53;;;12.02;40.28
40285;BME280;25997;50.214;19.354;2023-04-25T12:56:43;96839.94;;;12.11;40.22
40285;BME280;25997;50.214;19.354;2023-04-25T12:59:46;96834.69;;;12.13;40.23
40285;BME280;25997;50.214;19.354;2023-04-25T13:02:49;96833.81;;;12.26;40.36
40285;BME280;25997;50.214;19.354;2023-04-25T13:05:53;96832.94;;;12.29;40.03
40285;BME280;25997;50.214;19.354;2023-04-25T13:08:55;96829.41;;;12.25;40.06
40285;BME280;25997;50.214;19.354;2023-04-25T13:11:57;96828.56;;;12.22;40.00
40285;BME280;25997;50.214;19.354;2023-04-25T13:15:00;96832.91;;;12.13;40.26
40285;BME280;25997;50.214;19.354;2023-04-25T13:18:03;96829.44;;;12.18;40.23
40285;BME280;25997;50.214;19.354;2023-04-25T13:21:09;96814.50;;;12.12;39.03
40285;BME280;25997;50.214;19.354;2023-04-25T13:24:11;96825.03;;;12.12;39.89
40285;BME280;25997;50.214;19.354;2023-04-25T13:27:13;96825.03;;;12.20;39.93
40285;BME280;25997;50.214;19.354;2023-04-25T13:30:16;96829.41;;;12.40;39.92
40285;BME280;25997;50.214;19.354;2023-04-25T13:33:19;96828.53;;;12.41;39.22
40285;BME280;25997;50.214;19.354;2023-04-25T13:36:24;96829.41;;;12.39;39.20
40285;BME280;25997;50.214;19.354;2023-04-25T13:39:26;96839.91;;;12.61;39.36
40285;BME280;25997;50.214;19.354;2023-04-25T13:42:29;96839.88;;;12.73;38.94
40285;BME280;25997;50.214;19.354;2023-04-25T13:45:31;96831.13;;;12.65;38.92
40285;BME280;25997;50.214;19.354;2023-04-25T13:48:34;96836.38;;;12.80;38.68
40285;BME280;25997;50.214;19.354;2023-04-25T13:51:38;96841.63;;;12.76;37.77
40285;BME280;25997;50.214;19.354;2023-04-25T13:54:40;96834.56;;;13.01;38.63
40285;BME280;25997;50.214;19.354;2023-04-25T13:57:43;96841.56;;;13.20;38.61
40285;BME280;25997;50.214;19.354;2023-04-25T14:00:46;96837.91;;;13.49;38.56
40285;BME280;25997;50.214;19.354;2023-04-25T14:03:48;96839.56;;;13.70;38.58
40285;BME280;25997;50.214;19.354;2023-04-25T14:06:52;96841.25;;;13.82;38.14
40285;BME280;25997;50.214;19.354;2023-04-25T14:09:56;96844.00;;;13.63;38.16
40285;BME280;25997;50.214;19.354;2023-04-25T14:12:59;96841.47;;;13.33;38.13
40285;BME280;25997;50.214;19.354;2023-04-25T14:16:04;96836.31;;;13.00;38.22
40285;BME280;25997;50.214;19.354;2023-04-25T14:19:07;96844.28;;;12.86;38.61
40285;BME280;25997;50.214;19.354;2023-04-25T14:22:11;96846.00;;;12.87;38.97
40285;BME280;25997;50.214;19.354;2023-04-25T14:25:13;96851.28;;;12.80;38.91
40285;BME280;25997;50.214;19.354;2023-04-25T14:28:16;96848.69;;;12.69;38.88
40285;BME280;25997;50.214;19.354;2023-04-25T14:31:18;96846.06;;;12.63;38.97
40285;BME280;25997;50.214;19.354;2023-04-25T14:34:21;96838.16;;;12.66;38.77
40285;BME280;25997;50.214;19.354;2023-04-25T14:37:25;96845.16;;;12.67;38.85
40285;BME280;25997;50.214;19.354;2023-04-25T14:40:28;96845.13;;;12.85;38.97
40285;BME280;25997;50.214;19.354;2023-04-25T14:43:30;96838.94;;;13.00;38.78
40285;BME280;25997;50.214;19.354;2023-04-25T14:46:33;96848.63;;;13.00;38.37
40285;BME280;25997;50.214;19.354;2023-04-25T14:49:35;96846.88;;;13.06;38.59
40285;BME280;25997;50.214;19.354;2023-04-25T14:52:39;96858.22;;;13.25;38.60
40285;BME280;25997;50.214;19.354;2023-04-25T14:55:41;96856.44;;;13.31;38.40
40285;BME280;25997;50.214;19.354;2023-04-25T14:58:44;96856.44;;;13.27;38.21
40285;BME280;25997;50.214;19.354;2023-04-25T15:01:47;96859.09;;;13.22;38.28
40285;BME280;25997;50.214;19.354;2023-04-25T15:04:49;96858.16;;;13.43;38.42
40285;BME280;25997;50.214;19.354;2023-04-25T15:07:53;96870.50;;;13.30;38.11
40285;BME280;25997;50.214;19.354;2023-04-25T15:10:56;96871.38;;;13.32;38.56
40285;BME280;25997;50.214;19.354;2023-04-25T15:13:58;96863.25;;;13.79;38.41
40285;BME280;25997;50.214;19.354;2023-04-25T15:17:01;96860.22;;;14.38;38.25
40285;BME280;25997;50.214;19.354;2023-04-25T15:20:05;96859.75;;;14.92;37.51
40285;BME280;25997;50.214;19.354;2023-04-25T15:23:09;96851.03;;;15.62;36.71
40285;BME280;25997;50.214;19.354;2023-04-25T15:26:12;96853.72;;;16.21;36.63
40285;BME280;25997;50.214;19.354;2023-04-25T15:29:15;96858.63;;;16.48;36.12
40285;BME280;25997;50.214;19.354;2023-04-25T15:32:17;96860.41;;;16.45;35.91
40285;BME280;25997;50.214;19.354;2023-04-25T15:35:20;96841.44;;;16.17;35.55
40285;BME280;25997;50.214;19.354;2023-04-25T15:38:24;96858.47;;;15.30;35.34
40285;BME280;25997;50.214;19.354;2023-04-25T15:41:27;96862.44;;;14.91;36.36
40285;BME280;25997;50.214;19.354;2023-04-25T15:44:30;96858.34;;;14.55;36.55
40285;BME280;25997;50.214;19.354;2023-04-25T15:47:33;96857.31;;;14.67;37.14
40285;BME280;25997;50.214;19.354;2023-04-25T15:50:36;96855.66;;;14.60;36.69
40285;BME280;25997;50.214;19.354;2023-04-25T15:53:40;96851.53;;;14.25;36.53
40285;BME280;25997;50.214;19.354;2023-04-25T15:56:43;96858.88;;;13.75;36.94
40285;BME280;25997;50.214;19.354;2023-04-25T15:59:47;96859.06;;;13.42;37.19
40285;BME280;25997;50.214;19.354;2023-04-25T16:02:49;96854.72;;;13.21;37.13
40285;BME280;25997;50.214;19.354;2023-04-25T16:05:52;96854.75;;;13.02;37.23
40285;BME280;25997;50.214;19.354;2023-04-25T16:08:56;96858.31;;;12.93;37.10
40285;BME280;25997;50.214;19.354;2023-04-25T16:11:58;96853.03;;;12.82;37.57
40285;BME280;25997;50.214;19.354;2023-04-25T16:15:01;96851.28;;;12.87;37.65